<?xml version="1.0" encoding="utf-8"?>
<gpx xmlns:xsi="http://www.w3.org/2001/XMLSchema-instance" xmlns:xsd="http://www.w3.org/2001/XMLSchema" version="1.1" creator="Shapelink.com" xmlns="http://www.topografix.com/GPX/1/1" xmlns:gpxtpx="http://www.garmin.com/xmlschemas/TrackPointExtension/v1">
  <metadata>
    <name>Ejecutar 5.71 km, 2020-02-02</name>
    <desc></desc>
    <author><name>Per Rooth</name></author> 
    <time>2020-02-02T14:00:00Z</time>
  </metadata>
  <trk>
    <name>Ejecutar 5.71 km, 2020-02-02</name>
    <trkseg>
      <trkpt lat="56.955265477398" lon="14.799192610528">
        <ele>166.4</ele>
        <time>2020-02-02T14:00:00Z</time>
      </trkpt>
      <trkpt lat="56.955295568419" lon="14.799260839194">
        <ele>166.6</ele>
        <time>2020-02-02T14:00:05Z</time>
      </trkpt>
      <trkpt lat="56.955310152925" lon="14.799287828912">
        <ele>166.4</ele>
        <time>2020-02-02T14:00:07Z</time>
      </trkpt>
      <trkpt lat="56.955329766571" lon="14.799326134195">
        <ele>166</ele>
        <time>2020-02-02T14:00:09Z</time>
      </trkpt>
      <trkpt lat="56.955508301041" lon="14.799456556559">
        <ele>166</ele>
        <time>2020-02-02T14:00:19Z</time>
      </trkpt>
      <trkpt lat="56.95554861798" lon="14.799479020051">
        <ele>166.2</ele>
        <time>2020-02-02T14:00:22Z</time>
      </trkpt>
      <trkpt lat="56.955543672659" lon="14.799453539075">
        <ele>166</ele>
        <time>2020-02-02T14:00:27Z</time>
      </trkpt>
      <trkpt lat="56.95554861798" lon="14.799411294299">
        <ele>168.8</ele>
        <time>2020-02-02T14:00:29Z</time>
      </trkpt>
      <trkpt lat="56.955550964912" lon="14.799388830807">
        <ele>167</ele>
        <time>2020-02-02T14:00:30Z</time>
      </trkpt>
      <trkpt lat="56.955549959084" lon="14.799367876057">
        <ele>166.8</ele>
        <time>2020-02-02T14:00:31Z</time>
      </trkpt>
      <trkpt lat="56.955566722884" lon="14.799253882217">
        <ele>165.8</ele>
        <time>2020-02-02T14:00:36Z</time>
      </trkpt>
      <trkpt lat="56.955569740368" lon="14.799222953006">
        <ele>165.8</ele>
        <time>2020-02-02T14:00:38Z</time>
      </trkpt>
      <trkpt lat="56.955641154156" lon="14.799046178735">
        <ele>166.2</ele>
        <time>2020-02-02T14:00:45Z</time>
      </trkpt>
      <trkpt lat="56.955743748612" lon="14.798715261323">
        <ele>166</ele>
        <time>2020-02-02T14:00:54Z</time>
      </trkpt>
      <trkpt lat="56.955892946432" lon="14.798520465967">
        <ele>165.4</ele>
        <time>2020-02-02T14:01:04Z</time>
      </trkpt>
      <trkpt lat="56.955907111843" lon="14.798510742963">
        <ele>165.6</ele>
        <time>2020-02-02T14:01:05Z</time>
      </trkpt>
      <trkpt lat="56.955939717434" lon="14.798509820954">
        <ele>165.8</ele>
        <time>2020-02-02T14:01:07Z</time>
      </trkpt>
      <trkpt lat="56.955956481234" lon="14.798493895344">
        <ele>166.2</ele>
        <time>2020-02-02T14:01:08Z</time>
      </trkpt>
      <trkpt lat="56.956005096254" lon="14.798357773288">
        <ele>166</ele>
        <time>2020-02-02T14:01:12Z</time>
      </trkpt>
      <trkpt lat="56.956149264934" lon="14.798121990441">
        <ele>165.8</ele>
        <time>2020-02-02T14:01:21Z</time>
      </trkpt>
      <trkpt lat="56.956338695874" lon="14.798069771204">
        <ele>164.6</ele>
        <time>2020-02-02T14:01:31Z</time>
      </trkpt>
      <trkpt lat="56.956351687819" lon="14.798064742064">
        <ele>164.6</ele>
        <time>2020-02-02T14:01:32Z</time>
      </trkpt>
      <trkpt lat="56.956399045554" lon="14.79807094467">
        <ele>164.4</ele>
        <time>2020-02-02T14:01:35Z</time>
      </trkpt>
      <trkpt lat="56.956417150458" lon="14.798081170588">
        <ele>164.2</ele>
        <time>2020-02-02T14:01:36Z</time>
      </trkpt>
      <trkpt lat="56.956573221436" lon="14.798125594658">
        <ele>164.6</ele>
        <time>2020-02-02T14:01:44Z</time>
      </trkpt>
      <trkpt lat="56.956632230012" lon="14.798111093971">
        <ele>165.6</ele>
        <time>2020-02-02T14:01:47Z</time>
      </trkpt>
      <trkpt lat="56.956652598029" lon="14.798090642135">
        <ele>165.8</ele>
        <time>2020-02-02T14:01:48Z</time>
      </trkpt>
      <trkpt lat="56.956821074219" lon="14.797954352441">
        <ele>165</ele>
        <time>2020-02-02T14:01:56Z</time>
      </trkpt>
      <trkpt lat="56.956868096678" lon="14.797949239482">
        <ele>165</ele>
        <time>2020-02-02T14:01:58Z</time>
      </trkpt>
      <trkpt lat="56.956905815228" lon="14.797894673313">
        <ele>165</ele>
        <time>2020-02-02T14:02:00Z</time>
      </trkpt>
      <trkpt lat="56.956991226789" lon="14.797801466585">
        <ele>164.4</ele>
        <time>2020-02-02T14:02:04Z</time>
      </trkpt>
      <trkpt lat="56.957158697151" lon="14.797630475825">
        <ele>164</ele>
        <time>2020-02-02T14:02:13Z</time>
      </trkpt>
      <trkpt lat="56.957202450669" lon="14.797581944624">
        <ele>164.4</ele>
        <time>2020-02-02T14:02:15Z</time>
      </trkpt>
      <trkpt lat="56.957296998501" lon="14.797483541118">
        <ele>164.6</ele>
        <time>2020-02-02T14:02:19Z</time>
      </trkpt>
      <trkpt lat="56.957371094497" lon="14.797462251092">
        <ele>163.8</ele>
        <time>2020-02-02T14:02:22Z</time>
      </trkpt>
      <trkpt lat="56.957426582675" lon="14.797507261895">
        <ele>163.2</ele>
        <time>2020-02-02T14:02:25Z</time>
      </trkpt>
      <trkpt lat="56.957571505726" lon="14.797619914631">
        <ele>164.4</ele>
        <time>2020-02-02T14:02:31Z</time>
      </trkpt>
      <trkpt lat="56.957736126242" lon="14.797764418587">
        <ele>165</ele>
        <time>2020-02-02T14:02:37Z</time>
      </trkpt>
      <trkpt lat="56.957901501129" lon="14.797922417402">
        <ele>164.4</ele>
        <time>2020-02-02T14:02:44Z</time>
      </trkpt>
      <trkpt lat="56.95806234979" lon="14.798091145049">
        <ele>163.6</ele>
        <time>2020-02-02T14:02:51Z</time>
      </trkpt>
      <trkpt lat="56.958190341403" lon="14.798200109749">
        <ele>164.6</ele>
        <time>2020-02-02T14:02:58Z</time>
      </trkpt>
      <trkpt lat="56.958234933111" lon="14.798250987882">
        <ele>165.4</ele>
        <time>2020-02-02T14:03:00Z</time>
      </trkpt>
      <trkpt lat="56.958405923871" lon="14.798375710554">
        <ele>165</ele>
        <time>2020-02-02T14:03:08Z</time>
      </trkpt>
      <trkpt lat="56.95857699845" lon="14.798497164285">
        <ele>164.8</ele>
        <time>2020-02-02T14:03:16Z</time>
      </trkpt>
      <trkpt lat="56.958741954242" lon="14.79862582645">
        <ele>165.2</ele>
        <time>2020-02-02T14:03:23Z</time>
      </trkpt>
      <trkpt lat="56.958818732446" lon="14.798614259428">
        <ele>164.8</ele>
        <time>2020-02-02T14:03:27Z</time>
      </trkpt>
      <trkpt lat="56.958963487859" lon="14.798414686389">
        <ele>165.8</ele>
        <time>2020-02-02T14:03:35Z</time>
      </trkpt>
      <trkpt lat="56.959140597406" lon="14.798237995937">
        <ele>165.6</ele>
        <time>2020-02-02T14:03:42Z</time>
      </trkpt>
      <trkpt lat="56.959316784944" lon="14.79816398376">
        <ele>165.2</ele>
        <time>2020-02-02T14:03:49Z</time>
      </trkpt>
      <trkpt lat="56.959412757699" lon="14.798168509986">
        <ele>164.4</ele>
        <time>2020-02-02T14:03:53Z</time>
      </trkpt>
      <trkpt lat="56.959599422612" lon="14.798027694066">
        <ele>165</ele>
        <time>2020-02-02T14:04:01Z</time>
      </trkpt>
      <trkpt lat="56.959756164142" lon="14.797844549551">
        <ele>165.8</ele>
        <time>2020-02-02T14:04:07Z</time>
      </trkpt>
      <trkpt lat="56.959893711121" lon="14.797607090324">
        <ele>165.2</ele>
        <time>2020-02-02T14:04:14Z</time>
      </trkpt>
      <trkpt lat="56.959974512637" lon="14.797354543677">
        <ele>166.6</ele>
        <time>2020-02-02T14:04:21Z</time>
      </trkpt>
      <trkpt lat="56.960051290841" lon="14.797159580683">
        <ele>166.4</ele>
        <time>2020-02-02T14:04:26Z</time>
      </trkpt>
      <trkpt lat="56.960116585842" lon="14.797020105867">
        <ele>165.4</ele>
        <time>2020-02-02T14:04:30Z</time>
      </trkpt>
      <trkpt lat="56.96018883782" lon="14.796864370165">
        <ele>164.4</ele>
        <time>2020-02-02T14:04:34Z</time>
      </trkpt>
      <trkpt lat="56.960336107803" lon="14.796604447446">
        <ele>165.4</ele>
        <time>2020-02-02T14:04:43Z</time>
      </trkpt>
      <trkpt lat="56.960351530499" lon="14.796586426361">
        <ele>165.6</ele>
        <time>2020-02-02T14:04:44Z</time>
      </trkpt>
      <trkpt lat="56.960552696099" lon="14.796572428588">
        <ele>165.4</ele>
        <time>2020-02-02T14:04:53Z</time>
      </trkpt>
      <trkpt lat="56.960724105954" lon="14.796688350265">
        <ele>166.4</ele>
        <time>2020-02-02T14:05:01Z</time>
      </trkpt>
      <trkpt lat="56.960909010668" lon="14.796694049957">
        <ele>164.8</ele>
        <time>2020-02-02T14:05:09Z</time>
      </trkpt>
      <trkpt lat="56.960963660656" lon="14.796658678339">
        <ele>165</ele>
        <time>2020-02-02T14:05:11Z</time>
      </trkpt>
      <trkpt lat="56.961128951724" lon="14.796506630673">
        <ele>166</ele>
        <time>2020-02-02T14:05:19Z</time>
      </trkpt>
      <trkpt lat="56.961221152624" lon="14.796395905774">
        <ele>165.8</ele>
        <time>2020-02-02T14:05:24Z</time>
      </trkpt>
      <trkpt lat="56.961305977452" lon="14.796368832237">
        <ele>166.6</ele>
        <time>2020-02-02T14:05:28Z</time>
      </trkpt>
      <trkpt lat="56.961478141678" lon="14.796181245315">
        <ele>166</ele>
        <time>2020-02-02T14:05:37Z</time>
      </trkpt>
      <trkpt lat="56.961517117513" lon="14.796134893408">
        <ele>165.8</ele>
        <time>2020-02-02T14:05:39Z</time>
      </trkpt>
      <trkpt lat="56.961570761673" lon="14.795908749746">
        <ele>166.2</ele>
        <time>2020-02-02T14:05:45Z</time>
      </trkpt>
      <trkpt lat="56.961527678707" lon="14.795666261379">
        <ele>166</ele>
        <time>2020-02-02T14:05:53Z</time>
      </trkpt>
      <trkpt lat="56.961416953808" lon="14.795445817409">
        <ele>165.2</ele>
        <time>2020-02-02T14:06:00Z</time>
      </trkpt>
      <trkpt lat="56.961237916424" lon="14.795288572965">
        <ele>165.6</ele>
        <time>2020-02-02T14:06:09Z</time>
      </trkpt>
      <trkpt lat="56.961084192378" lon="14.79515907261">
        <ele>164.4</ele>
        <time>2020-02-02T14:06:16Z</time>
      </trkpt>
      <trkpt lat="56.960999954283" lon="14.795139878059">
        <ele>163.6</ele>
        <time>2020-02-02T14:06:19Z</time>
      </trkpt>
      <trkpt lat="56.960985285958" lon="14.795115067635">
        <ele>163.2</ele>
        <time>2020-02-02T14:06:20Z</time>
      </trkpt>
      <trkpt lat="56.960815384845" lon="14.794966708005">
        <ele>163.6</ele>
        <time>2020-02-02T14:06:29Z</time>
      </trkpt>
      <trkpt lat="56.960693092924" lon="14.79482882575">
        <ele>164</ele>
        <time>2020-02-02T14:06:34Z</time>
      </trkpt>
      <trkpt lat="56.96065319508" lon="14.7947743434">
        <ele>164.2</ele>
        <time>2020-02-02T14:06:36Z</time>
      </trkpt>
      <trkpt lat="56.960492011143" lon="14.794590276876">
        <ele>165</ele>
        <time>2020-02-02T14:06:45Z</time>
      </trkpt>
      <trkpt lat="56.960485137985" lon="14.79456898685">
        <ele>164.8</ele>
        <time>2020-02-02T14:06:46Z</time>
      </trkpt>
      <trkpt lat="56.960459740828" lon="14.794527747902">
        <ele>165.2</ele>
        <time>2020-02-02T14:06:48Z</time>
      </trkpt>
      <trkpt lat="56.960302077289" lon="14.794356505685">
        <ele>165</ele>
        <time>2020-02-02T14:06:56Z</time>
      </trkpt>
      <trkpt lat="56.960172744572" lon="14.794286181544">
        <ele>164.4</ele>
        <time>2020-02-02T14:07:02Z</time>
      </trkpt>
      <trkpt lat="56.960150700175" lon="14.794301352783">
        <ele>164</ele>
        <time>2020-02-02T14:07:03Z</time>
      </trkpt>
      <trkpt lat="56.960064534243" lon="14.794372682752">
        <ele>163.8</ele>
        <time>2020-02-02T14:07:08Z</time>
      </trkpt>
      <trkpt lat="56.959966885108" lon="14.794559682941">
        <ele>163.8</ele>
        <time>2020-02-02T14:07:15Z</time>
      </trkpt>
      <trkpt lat="56.959786422801" lon="14.794558509475">
        <ele>163.6</ele>
        <time>2020-02-02T14:07:24Z</time>
      </trkpt>
      <trkpt lat="56.959674692074" lon="14.794560353493">
        <ele>163.2</ele>
        <time>2020-02-02T14:07:28Z</time>
      </trkpt>
      <trkpt lat="56.9596121631" lon="14.794576446741">
        <ele>163.6</ele>
        <time>2020-02-02T14:07:31Z</time>
      </trkpt>
      <trkpt lat="56.959423989445" lon="14.794503440392">
        <ele>164.4</ele>
        <time>2020-02-02T14:07:39Z</time>
      </trkpt>
      <trkpt lat="56.959397167365" lon="14.794503691849">
        <ele>164.6</ele>
        <time>2020-02-02T14:07:40Z</time>
      </trkpt>
      <trkpt lat="56.959196839955" lon="14.794560018217">
        <ele>164.2</ele>
        <time>2020-02-02T14:07:47Z</time>
      </trkpt>
      <trkpt lat="56.959002044599" lon="14.794554067068">
        <ele>164.2</ele>
        <time>2020-02-02T14:07:55Z</time>
      </trkpt>
      <trkpt lat="56.95882510269" lon="14.794581224424">
        <ele>164.6</ele>
        <time>2020-02-02T14:08:03Z</time>
      </trkpt>
      <trkpt lat="56.958643969831" lon="14.794628246883">
        <ele>163.2</ele>
        <time>2020-02-02T14:08:11Z</time>
      </trkpt>
      <trkpt lat="56.958611783335" lon="14.794668144727">
        <ele>163.2</ele>
        <time>2020-02-02T14:08:13Z</time>
      </trkpt>
      <trkpt lat="56.958590493309" lon="14.794693960979">
        <ele>163</ele>
        <time>2020-02-02T14:08:14Z</time>
      </trkpt>
      <trkpt lat="56.958514050381" lon="14.794718939041">
        <ele>162.4</ele>
        <time>2020-02-02T14:08:17Z</time>
      </trkpt>
      <trkpt lat="56.958340042137" lon="14.794836620917">
        <ele>163.4</ele>
        <time>2020-02-02T14:08:24Z</time>
      </trkpt>
      <trkpt lat="56.958269717996" lon="14.795142811724">
        <ele>164</ele>
        <time>2020-02-02T14:08:32Z</time>
      </trkpt>
      <trkpt lat="56.958220851519" lon="14.79548596671">
        <ele>164.4</ele>
        <time>2020-02-02T14:08:41Z</time>
      </trkpt>
      <trkpt lat="56.958229568695" lon="14.795610437925">
        <ele>164.6</ele>
        <time>2020-02-02T14:08:45Z</time>
      </trkpt>
      <trkpt lat="56.958236441853" lon="14.795729209448">
        <ele>164.8</ele>
        <time>2020-02-02T14:08:48Z</time>
      </trkpt>
      <trkpt lat="56.958241387174" lon="14.795821410348">
        <ele>165.2</ele>
        <time>2020-02-02T14:08:51Z</time>
      </trkpt>
      <trkpt lat="56.958230490704" lon="14.795869690092">
        <ele>165.4</ele>
        <time>2020-02-02T14:08:53Z</time>
      </trkpt>
      <trkpt lat="56.958220097148" lon="14.79596708777">
        <ele>165.8</ele>
        <time>2020-02-02T14:08:57Z</time>
      </trkpt>
      <trkpt lat="56.95819813657" lon="14.79606599419">
        <ele>166</ele>
        <time>2020-02-02T14:09:00Z</time>
      </trkpt>
      <trkpt lat="56.958210206506" lon="14.796167498999">
        <ele>165.8</ele>
        <time>2020-02-02T14:09:04Z</time>
      </trkpt>
      <trkpt lat="56.958197968932" lon="14.796231452896">
        <ele>165.6</ele>
        <time>2020-02-02T14:09:07Z</time>
      </trkpt>
      <trkpt lat="56.958159663649" lon="14.796322145054">
        <ele>165.8</ele>
        <time>2020-02-02T14:09:10Z</time>
      </trkpt>
      <trkpt lat="56.958176008354" lon="14.79651107308">
        <ele>164</ele>
        <time>2020-02-02T14:09:14Z</time>
      </trkpt>
      <trkpt lat="56.958214313637" lon="14.796636969218">
        <ele>163.6</ele>
        <time>2020-02-02T14:09:18Z</time>
      </trkpt>
      <trkpt lat="56.958244907572" lon="14.796671586465">
        <ele>163.8</ele>
        <time>2020-02-02T14:09:20Z</time>
      </trkpt>
      <trkpt lat="56.958342808164" lon="14.796955062323">
        <ele>164.6</ele>
        <time>2020-02-02T14:09:29Z</time>
      </trkpt>
      <trkpt lat="56.958377844506" lon="14.797055477485">
        <ele>164.4</ele>
        <time>2020-02-02T14:09:32Z</time>
      </trkpt>
      <trkpt lat="56.958407851708" lon="14.797023290989">
        <ele>164.4</ele>
        <time>2020-02-02T14:09:36Z</time>
      </trkpt>
      <trkpt lat="56.958514888571" lon="14.797057992055">
        <ele>164.4</ele>
        <time>2020-02-02T14:09:41Z</time>
      </trkpt>
      <trkpt lat="56.958696691982" lon="14.797155473552">
        <ele>164.2</ele>
        <time>2020-02-02T14:09:48Z</time>
      </trkpt>
      <trkpt lat="56.958814541496" lon="14.79724281295">
        <ele>164.4</ele>
        <time>2020-02-02T14:09:54Z</time>
      </trkpt>
      <trkpt lat="56.958977234175" lon="14.797371307477">
        <ele>163</ele>
        <time>2020-02-02T14:10:01Z</time>
      </trkpt>
      <trkpt lat="56.959078906622" lon="14.797482954385">
        <ele>162.6</ele>
        <time>2020-02-02T14:10:06Z</time>
      </trkpt>
      <trkpt lat="56.959112853317" lon="14.797533748699">
        <ele>163.2</ele>
        <time>2020-02-02T14:10:08Z</time>
      </trkpt>
      <trkpt lat="56.959156271559" lon="14.797662075588">
        <ele>163.8</ele>
        <time>2020-02-02T14:10:12Z</time>
      </trkpt>
      <trkpt lat="56.959180998164" lon="14.797692250428">
        <ele>164.2</ele>
        <time>2020-02-02T14:10:13Z</time>
      </trkpt>
      <trkpt lat="56.959233971772" lon="14.797775817971">
        <ele>164.6</ele>
        <time>2020-02-02T14:10:16Z</time>
      </trkpt>
      <trkpt lat="56.959257776368" lon="14.797867599776">
        <ele>165.2</ele>
        <time>2020-02-02T14:10:19Z</time>
      </trkpt>
      <trkpt lat="56.959263727517" lon="14.79788989563">
        <ele>164.8</ele>
        <time>2020-02-02T14:10:20Z</time>
      </trkpt>
      <trkpt lat="56.959314438012" lon="14.798061976037">
        <ele>164.2</ele>
        <time>2020-02-02T14:11:03Z</time>
      </trkpt>
      <trkpt lat="56.959302535714" lon="14.798113021808">
        <ele>164.2</ele>
        <time>2020-02-02T14:11:06Z</time>
      </trkpt>
      <trkpt lat="56.959249143011" lon="14.798163480846">
        <ele>164.2</ele>
        <time>2020-02-02T14:11:10Z</time>
      </trkpt>
      <trkpt lat="56.959139926854" lon="14.798453326948">
        <ele>164.6</ele>
        <time>2020-02-02T14:11:17Z</time>
      </trkpt>
      <trkpt lat="56.959040768977" lon="14.798576457059">
        <ele>164</ele>
        <time>2020-02-02T14:11:23Z</time>
      </trkpt>
      <trkpt lat="56.958871370778" lon="14.798434802949">
        <ele>164</ele>
        <time>2020-02-02T14:11:31Z</time>
      </trkpt>
      <trkpt lat="56.958750336142" lon="14.798350648673">
        <ele>164.2</ele>
        <time>2020-02-02T14:11:36Z</time>
      </trkpt>
      <trkpt lat="56.95854598542" lon="14.798277726143">
        <ele>163.8</ele>
        <time>2020-02-02T14:11:44Z</time>
      </trkpt>
      <trkpt lat="56.958359739602" lon="14.798150488901">
        <ele>164.6</ele>
        <time>2020-02-02T14:11:51Z</time>
      </trkpt>
      <trkpt lat="56.958172320318" lon="14.79799886033">
        <ele>163.4</ele>
        <time>2020-02-02T14:11:58Z</time>
      </trkpt>
      <trkpt lat="56.957993534391" lon="14.797791240667">
        <ele>164</ele>
        <time>2020-02-02T14:12:04Z</time>
      </trkpt>
      <trkpt lat="56.957807456211" lon="14.797618992622">
        <ele>163.8</ele>
        <time>2020-02-02T14:12:10Z</time>
      </trkpt>
      <trkpt lat="56.957647697197" lon="14.797411875873">
        <ele>163.2</ele>
        <time>2020-02-02T14:12:17Z</time>
      </trkpt>
      <trkpt lat="56.957630933397" lon="14.797395950263">
        <ele>163</ele>
        <time>2020-02-02T14:12:18Z</time>
      </trkpt>
      <trkpt lat="56.957532446072" lon="14.797309700512">
        <ele>162.4</ele>
        <time>2020-02-02T14:12:24Z</time>
      </trkpt>
      <trkpt lat="56.957358940742" lon="14.797436351021">
        <ele>163.4</ele>
        <time>2020-02-02T14:12:32Z</time>
      </trkpt>
      <trkpt lat="56.957263051806" lon="14.797493934674">
        <ele>163.8</ele>
        <time>2020-02-02T14:12:36Z</time>
      </trkpt>
      <trkpt lat="56.957112848158" lon="14.797724939838">
        <ele>163.2</ele>
        <time>2020-02-02T14:12:44Z</time>
      </trkpt>
      <trkpt lat="56.956952921506" lon="14.797786462984">
        <ele>163.6</ele>
        <time>2020-02-02T14:12:51Z</time>
      </trkpt>
      <trkpt lat="56.956873125818" lon="14.797927278904">
        <ele>165.4</ele>
        <time>2020-02-02T14:12:55Z</time>
      </trkpt>
      <trkpt lat="56.95682853411" lon="14.797945132351">
        <ele>164.2</ele>
        <time>2020-02-02T14:12:58Z</time>
      </trkpt>
      <trkpt lat="56.956818811106" lon="14.797941528134">
        <ele>164.8</ele>
        <time>2020-02-02T14:12:59Z</time>
      </trkpt>
      <trkpt lat="56.956785032049" lon="14.79791923228">
        <ele>165.4</ele>
        <time>2020-02-02T14:13:01Z</time>
      </trkpt>
      <trkpt lat="56.956620998266" lon="14.797826779923">
        <ele>165</ele>
        <time>2020-02-02T14:13:09Z</time>
      </trkpt>
      <trkpt lat="56.956571461237" lon="14.797837844031">
        <ele>165</ele>
        <time>2020-02-02T14:13:11Z</time>
      </trkpt>
      <trkpt lat="56.95637758789" lon="14.797800544576">
        <ele>165.6</ele>
        <time>2020-02-02T14:13:19Z</time>
      </trkpt>
      <trkpt lat="56.956207686777" lon="14.797906324154">
        <ele>166.2</ele>
        <time>2020-02-02T14:13:26Z</time>
      </trkpt>
      <trkpt lat="56.956186983484" lon="14.797939013564">
        <ele>166.4</ele>
        <time>2020-02-02T14:13:27Z</time>
      </trkpt>
      <trkpt lat="56.956095369317" lon="14.798197343722">
        <ele>167.2</ele>
        <time>2020-02-02T14:13:33Z</time>
      </trkpt>
      <trkpt lat="56.95601716619" lon="14.798238498851">
        <ele>167</ele>
        <time>2020-02-02T14:13:36Z</time>
      </trkpt>
      <trkpt lat="56.955952541741" lon="14.798345284257">
        <ele>166.6</ele>
        <time>2020-02-02T14:13:39Z</time>
      </trkpt>
      <trkpt lat="56.955907447119" lon="14.798362299514">
        <ele>166.2</ele>
        <time>2020-02-02T14:13:41Z</time>
      </trkpt>
      <trkpt lat="56.955930664982" lon="14.798194493876">
        <ele>165.2</ele>
        <time>2020-02-02T14:13:46Z</time>
      </trkpt>
      <trkpt lat="56.955960672184" lon="14.797851841804">
        <ele>165.4</ele>
        <time>2020-02-02T14:13:53Z</time>
      </trkpt>
      <trkpt lat="56.955952877017" lon="14.797635002051">
        <ele>166.2</ele>
        <time>2020-02-02T14:13:57Z</time>
      </trkpt>
      <trkpt lat="56.955931084077" lon="14.797269467392">
        <ele>166.2</ele>
        <time>2020-02-02T14:14:04Z</time>
      </trkpt>
      <trkpt lat="56.955853551502" lon="14.796948189165">
        <ele>165.8</ele>
        <time>2020-02-02T14:14:11Z</time>
      </trkpt>
      <trkpt lat="56.955754142168" lon="14.79667535832">
        <ele>165.4</ele>
        <time>2020-02-02T14:14:17Z</time>
      </trkpt>
      <trkpt lat="56.955734863798" lon="14.796630515155">
        <ele>165.2</ele>
        <time>2020-02-02T14:14:18Z</time>
      </trkpt>
      <trkpt lat="56.955628329849" lon="14.796312170593">
        <ele>165</ele>
        <time>2020-02-02T14:14:25Z</time>
      </trkpt>
      <trkpt lat="56.95548240097" lon="14.796059540127">
        <ele>165.6</ele>
        <time>2020-02-02T14:14:33Z</time>
      </trkpt>
      <trkpt lat="56.955328509286" lon="14.795856698147">
        <ele>165</ele>
        <time>2020-02-02T14:14:40Z</time>
      </trkpt>
      <trkpt lat="56.955320714119" lon="14.795831133352">
        <ele>165.4</ele>
        <time>2020-02-02T14:14:41Z</time>
      </trkpt>
      <trkpt lat="56.95538349455" lon="14.795548998598">
        <ele>164</ele>
        <time>2020-02-02T14:14:48Z</time>
      </trkpt>
      <trkpt lat="56.955404281662" lon="14.795467861806">
        <ele>164</ele>
        <time>2020-02-02T14:14:50Z</time>
      </trkpt>
      <trkpt lat="56.95538517093" lon="14.795208106725">
        <ele>164.2</ele>
        <time>2020-02-02T14:14:56Z</time>
      </trkpt>
      <trkpt lat="56.955412076829" lon="14.795043234752">
        <ele>164.4</ele>
        <time>2020-02-02T14:15:00Z</time>
      </trkpt>
      <trkpt lat="56.955363294171" lon="14.794728494407">
        <ele>164</ele>
        <time>2020-02-02T14:15:07Z</time>
      </trkpt>
      <trkpt lat="56.955201523501" lon="14.794530765386">
        <ele>164.2</ele>
        <time>2020-02-02T14:15:15Z</time>
      </trkpt>
      <trkpt lat="56.95512868479" lon="14.794565466452">
        <ele>164.2</ele>
        <time>2020-02-02T14:15:18Z</time>
      </trkpt>
      <trkpt lat="56.954941936058" lon="14.794569657402">
        <ele>164.2</ele>
        <time>2020-02-02T14:15:25Z</time>
      </trkpt>
      <trkpt lat="56.95475233748" lon="14.794626570503">
        <ele>164</ele>
        <time>2020-02-02T14:15:33Z</time>
      </trkpt>
      <trkpt lat="56.954600289814" lon="14.794707455838">
        <ele>164.6</ele>
        <time>2020-02-02T14:15:40Z</time>
      </trkpt>
      <trkpt lat="56.954432232719" lon="14.794587259392">
        <ele>163.2</ele>
        <time>2020-02-02T14:15:47Z</time>
      </trkpt>
      <trkpt lat="56.954248333833" lon="14.794562029873">
        <ele>164.8</ele>
        <time>2020-02-02T14:15:55Z</time>
      </trkpt>
      <trkpt lat="56.954191504551" lon="14.794545349892">
        <ele>165.2</ele>
        <time>2020-02-02T14:15:56Z</time>
      </trkpt>
      <trkpt lat="56.954022944542" lon="14.794415430442">
        <ele>164</ele>
        <time>2020-02-02T14:16:03Z</time>
      </trkpt>
      <trkpt lat="56.953981705594" lon="14.794384501231">
        <ele>163</ele>
        <time>2020-02-02T14:16:05Z</time>
      </trkpt>
      <trkpt lat="56.953835692896" lon="14.794446359653">
        <ele>163.8</ele>
        <time>2020-02-02T14:16:12Z</time>
      </trkpt>
      <trkpt lat="56.953642406282" lon="14.794451053517">
        <ele>163.8</ele>
        <time>2020-02-02T14:16:20Z</time>
      </trkpt>
      <trkpt lat="56.953455154636" lon="14.794424482894">
        <ele>162.4</ele>
        <time>2020-02-02T14:16:27Z</time>
      </trkpt>
      <trkpt lat="56.953341160796" lon="14.794422052143">
        <ele>162.8</ele>
        <time>2020-02-02T14:16:32Z</time>
      </trkpt>
      <trkpt lat="56.953163799792" lon="14.794350386898">
        <ele>163.4</ele>
        <time>2020-02-02T14:16:39Z</time>
      </trkpt>
      <trkpt lat="56.953007644995" lon="14.794318032764">
        <ele>164</ele>
        <time>2020-02-02T14:16:45Z</time>
      </trkpt>
      <trkpt lat="56.952812849639" lon="14.794280062757">
        <ele>163.4</ele>
        <time>2020-02-02T14:16:52Z</time>
      </trkpt>
      <trkpt lat="56.952762642058" lon="14.794303448258">
        <ele>163</ele>
        <time>2020-02-02T14:16:54Z</time>
      </trkpt>
      <trkpt lat="56.952568768711" lon="14.794272938142">
        <ele>163.6</ele>
        <time>2020-02-02T14:17:02Z</time>
      </trkpt>
      <trkpt lat="56.952399705788" lon="14.794212672281">
        <ele>163.6</ele>
        <time>2020-02-02T14:17:08Z</time>
      </trkpt>
      <trkpt lat="56.952344971981" lon="14.794233124117">
        <ele>163.8</ele>
        <time>2020-02-02T14:17:10Z</time>
      </trkpt>
      <trkpt lat="56.95231069001" lon="14.79424712189">
        <ele>164</ele>
        <time>2020-02-02T14:17:11Z</time>
      </trkpt>
      <trkpt lat="56.952246317018" lon="14.794307639208">
        <ele>163.8</ele>
        <time>2020-02-02T14:17:14Z</time>
      </trkpt>
      <trkpt lat="56.952130562979" lon="14.79448516785">
        <ele>163.6</ele>
        <time>2020-02-02T14:17:21Z</time>
      </trkpt>
      <trkpt lat="56.952058478639" lon="14.794513247215">
        <ele>163.4</ele>
        <time>2020-02-02T14:17:25Z</time>
      </trkpt>
      <trkpt lat="56.952046408703" lon="14.794589690143">
        <ele>163.2</ele>
        <time>2020-02-02T14:17:28Z</time>
      </trkpt>
      <trkpt lat="56.952024280487" lon="14.794625061761">
        <ele>163.2</ele>
        <time>2020-02-02T14:17:30Z</time>
      </trkpt>
      <trkpt lat="56.951952866699" lon="14.794737965954">
        <ele>163.6</ele>
        <time>2020-02-02T14:17:35Z</time>
      </trkpt>
      <trkpt lat="56.951769470727" lon="14.794820527669">
        <ele>163.8</ele>
        <time>2020-02-02T14:17:43Z</time>
      </trkpt>
      <trkpt lat="56.951578363407" lon="14.794851540699">
        <ele>163.8</ele>
        <time>2020-02-02T14:17:51Z</time>
      </trkpt>
      <trkpt lat="56.951543829979" lon="14.794878698055">
        <ele>163.8</ele>
        <time>2020-02-02T14:17:53Z</time>
      </trkpt>
      <trkpt lat="56.951433356537" lon="14.794933348043">
        <ele>163.8</ele>
        <time>2020-02-02T14:17:58Z</time>
      </trkpt>
      <trkpt lat="56.951276950283" lon="14.794871489621">
        <ele>163.8</ele>
        <time>2020-02-02T14:18:07Z</time>
      </trkpt>
      <trkpt lat="56.951090453008" lon="14.794830334492">
        <ele>163.4</ele>
        <time>2020-02-02T14:18:15Z</time>
      </trkpt>
      <trkpt lat="56.950960114463" lon="14.794674514971">
        <ele>163.2</ele>
        <time>2020-02-02T14:18:23Z</time>
      </trkpt>
      <trkpt lat="56.950896412023" lon="14.794661271569">
        <ele>163.2</ele>
        <time>2020-02-02T14:18:26Z</time>
      </trkpt>
      <trkpt lat="56.950778981604" lon="14.794519868916">
        <ele>164</ele>
        <time>2020-02-02T14:18:32Z</time>
      </trkpt>
      <trkpt lat="56.950602207333" lon="14.794447281662">
        <ele>164.4</ele>
        <time>2020-02-02T14:18:40Z</time>
      </trkpt>
      <trkpt lat="56.950501708352" lon="14.794440911418">
        <ele>163.6</ele>
        <time>2020-02-02T14:18:45Z</time>
      </trkpt>
      <trkpt lat="56.950318815294" lon="14.794406042714">
        <ele>163.4</ele>
        <time>2020-02-02T14:18:54Z</time>
      </trkpt>
      <trkpt lat="56.950292915223" lon="14.794414173157">
        <ele>163.2</ele>
        <time>2020-02-02T14:18:55Z</time>
      </trkpt>
      <trkpt lat="56.950214795915" lon="14.794421968324">
        <ele>162.8</ele>
        <time>2020-02-02T14:18:58Z</time>
      </trkpt>
      <trkpt lat="56.950091749623" lon="14.79440302523">
        <ele>163.2</ele>
        <time>2020-02-02T14:19:04Z</time>
      </trkpt>
      <trkpt lat="56.949907096366" lon="14.794483826746">
        <ele>163.2</ele>
        <time>2020-02-02T14:19:11Z</time>
      </trkpt>
      <trkpt lat="56.949708193879" lon="14.794530178653">
        <ele>163.4</ele>
        <time>2020-02-02T14:19:19Z</time>
      </trkpt>
      <trkpt lat="56.949664440361" lon="14.794552055412">
        <ele>163.6</ele>
        <time>2020-02-02T14:19:21Z</time>
      </trkpt>
      <trkpt lat="56.949471237566" lon="14.79454970848">
        <ele>163.6</ele>
        <time>2020-02-02T14:19:28Z</time>
      </trkpt>
      <trkpt lat="56.949285746119" lon="14.794632605471">
        <ele>163.4</ele>
        <time>2020-02-02T14:19:35Z</time>
      </trkpt>
      <trkpt lat="56.949114839178" lon="14.794743749465">
        <ele>163.4</ele>
        <time>2020-02-02T14:19:42Z</time>
      </trkpt>
      <trkpt lat="56.948934293052" lon="14.79485900059">
        <ele>163.2</ele>
        <time>2020-02-02T14:19:48Z</time>
      </trkpt>
      <trkpt lat="56.948762045007" lon="14.794988417126">
        <ele>163.6</ele>
        <time>2020-02-02T14:19:54Z</time>
      </trkpt>
      <trkpt lat="56.948577978483" lon="14.795111882513">
        <ele>163.4</ele>
        <time>2020-02-02T14:20:01Z</time>
      </trkpt>
      <trkpt lat="56.948468678507" lon="14.795165275216">
        <ele>163</ele>
        <time>2020-02-02T14:20:05Z</time>
      </trkpt>
      <trkpt lat="56.948256784075" lon="14.795131579978">
        <ele>163.8</ele>
        <time>2020-02-02T14:20:13Z</time>
      </trkpt>
      <trkpt lat="56.948077243777" lon="14.79514649976">
        <ele>163</ele>
        <time>2020-02-02T14:20:21Z</time>
      </trkpt>
      <trkpt lat="56.947891584692" lon="14.795157982963">
        <ele>163.4</ele>
        <time>2020-02-02T14:20:29Z</time>
      </trkpt>
      <trkpt lat="56.947795192842" lon="14.79515571985">
        <ele>163.6</ele>
        <time>2020-02-02T14:20:33Z</time>
      </trkpt>
      <trkpt lat="56.94775261279" lon="14.795160329895">
        <ele>163.6</ele>
        <time>2020-02-02T14:20:35Z</time>
      </trkpt>
      <trkpt lat="56.947572150483" lon="14.795198718997">
        <ele>163.4</ele>
        <time>2020-02-02T14:20:42Z</time>
      </trkpt>
      <trkpt lat="56.947385066475" lon="14.795267618215">
        <ele>163.4</ele>
        <time>2020-02-02T14:20:48Z</time>
      </trkpt>
      <trkpt lat="56.947273419567" lon="14.795305336765">
        <ele>163.2</ele>
        <time>2020-02-02T14:20:53Z</time>
      </trkpt>
      <trkpt lat="56.947096896753" lon="14.795370967042">
        <ele>162.6</ele>
        <time>2020-02-02T14:20:59Z</time>
      </trkpt>
      <trkpt lat="56.946906627623" lon="14.795455037499">
        <ele>163.2</ele>
        <time>2020-02-02T14:21:05Z</time>
      </trkpt>
      <trkpt lat="56.946768158635" lon="14.795567354959">
        <ele>163.4</ele>
        <time>2020-02-02T14:21:10Z</time>
      </trkpt>
      <trkpt lat="56.946604627766" lon="14.795720827548">
        <ele>163.6</ele>
        <time>2020-02-02T14:21:15Z</time>
      </trkpt>
      <trkpt lat="56.946417627577" lon="14.79584806479">
        <ele>163.4</ele>
        <time>2020-02-02T14:21:23Z</time>
      </trkpt>
      <trkpt lat="56.946240350392" lon="14.796017295351">
        <ele>163.4</ele>
        <time>2020-02-02T14:21:31Z</time>
      </trkpt>
      <trkpt lat="56.946084363233" lon="14.796213012716">
        <ele>163.4</ele>
        <time>2020-02-02T14:21:39Z</time>
      </trkpt>
      <trkpt lat="56.94593709325" lon="14.796420464741">
        <ele>163.8</ele>
        <time>2020-02-02T14:21:46Z</time>
      </trkpt>
      <trkpt lat="56.945860063589" lon="14.796502104447">
        <ele>164</ele>
        <time>2020-02-02T14:21:49Z</time>
      </trkpt>
      <trkpt lat="56.945817902632" lon="14.796533955667">
        <ele>163.8</ele>
        <time>2020-02-02T14:21:51Z</time>
      </trkpt>
      <trkpt lat="56.945608438951" lon="14.796539739178">
        <ele>164.2</ele>
        <time>2020-02-02T14:21:59Z</time>
      </trkpt>
      <trkpt lat="56.945416996355" lon="14.796614002812">
        <ele>163.6</ele>
        <time>2020-02-02T14:22:06Z</time>
      </trkpt>
      <trkpt lat="56.945214824927" lon="14.79664937443">
        <ele>163.6</ele>
        <time>2020-02-02T14:22:14Z</time>
      </trkpt>
      <trkpt lat="56.945097143051" lon="14.796728667204">
        <ele>163.6</ele>
        <time>2020-02-02T14:22:19Z</time>
      </trkpt>
      <trkpt lat="56.945016173897" lon="14.796952212477">
        <ele>163.4</ele>
        <time>2020-02-02T14:22:25Z</time>
      </trkpt>
      <trkpt lat="56.944940820616" lon="14.797006862465">
        <ele>163</ele>
        <time>2020-02-02T14:22:29Z</time>
      </trkpt>
      <trkpt lat="56.944836633599" lon="14.797062769738">
        <ele>162.8</ele>
        <time>2020-02-02T14:22:33Z</time>
      </trkpt>
      <trkpt lat="56.94466891178" lon="14.797211967558">
        <ele>163.8</ele>
        <time>2020-02-02T14:22:41Z</time>
      </trkpt>
      <trkpt lat="56.944499681219" lon="14.797419838678">
        <ele>163.8</ele>
        <time>2020-02-02T14:22:49Z</time>
      </trkpt>
      <trkpt lat="56.944433799485" lon="14.797579513873">
        <ele>164.2</ele>
        <time>2020-02-02T14:22:53Z</time>
      </trkpt>
      <trkpt lat="56.944292396832" lon="14.797786630622">
        <ele>164.2</ele>
        <time>2020-02-02T14:23:01Z</time>
      </trkpt>
      <trkpt lat="56.944244368545" lon="14.797904228679">
        <ele>164.4</ele>
        <time>2020-02-02T14:23:04Z</time>
      </trkpt>
      <trkpt lat="56.944209667479" lon="14.798010846447">
        <ele>164.6</ele>
        <time>2020-02-02T14:23:07Z</time>
      </trkpt>
      <trkpt lat="56.944131212895" lon="14.798240845783">
        <ele>164.8</ele>
        <time>2020-02-02T14:23:13Z</time>
      </trkpt>
      <trkpt lat="56.944007496051" lon="14.798371435785">
        <ele>164.4</ele>
        <time>2020-02-02T14:23:19Z</time>
      </trkpt>
      <trkpt lat="56.943883024836" lon="14.798672681271">
        <ele>165</ele>
        <time>2020-02-02T14:23:26Z</time>
      </trkpt>
      <trkpt lat="56.943783028769" lon="14.798951630903">
        <ele>165.2</ele>
        <time>2020-02-02T14:23:35Z</time>
      </trkpt>
      <trkpt lat="56.943745058762" lon="14.799024385795">
        <ele>165.2</ele>
        <time>2020-02-02T14:23:38Z</time>
      </trkpt>
      <trkpt lat="56.943677500648" lon="14.799115999962">
        <ele>165.2</ele>
        <time>2020-02-02T14:23:42Z</time>
      </trkpt>
      <trkpt lat="56.943585551205" lon="14.799386232418">
        <ele>164.2</ele>
        <time>2020-02-02T14:23:49Z</time>
      </trkpt>
      <trkpt lat="56.943518663643" lon="14.799709438482">
        <ele>165.2</ele>
        <time>2020-02-02T14:23:58Z</time>
      </trkpt>
      <trkpt lat="56.943387067813" lon="14.799957542722">
        <ele>164.8</ele>
        <time>2020-02-02T14:24:06Z</time>
      </trkpt>
      <trkpt lat="56.943323113916" lon="14.800092994226">
        <ele>164.6</ele>
        <time>2020-02-02T14:24:10Z</time>
      </trkpt>
      <trkpt lat="56.943253963241" lon="14.800165749118">
        <ele>164.6</ele>
        <time>2020-02-02T14:24:13Z</time>
      </trkpt>
      <trkpt lat="56.943124043791" lon="14.80029550093">
        <ele>164.6</ele>
        <time>2020-02-02T14:24:18Z</time>
      </trkpt>
      <trkpt lat="56.94301851567" lon="14.800435059565">
        <ele>164.2</ele>
        <time>2020-02-02T14:24:24Z</time>
      </trkpt>
      <trkpt lat="56.94297241522" lon="14.800532038148">
        <ele>164</ele>
        <time>2020-02-02T14:24:28Z</time>
      </trkpt>
      <trkpt lat="56.942961015836" lon="14.800590962905">
        <ele>163.8</ele>
        <time>2020-02-02T14:24:30Z</time>
      </trkpt>
      <trkpt lat="56.942959255637" lon="14.800711410808">
        <ele>163.8</ele>
        <time>2020-02-02T14:24:35Z</time>
      </trkpt>
      <trkpt lat="56.942962440759" lon="14.800737813793">
        <ele>164</ele>
        <time>2020-02-02T14:24:36Z</time>
      </trkpt>
      <trkpt lat="56.942897648672" lon="14.800838815688">
        <ele>164</ele>
        <time>2020-02-02T14:24:40Z</time>
      </trkpt>
      <trkpt lat="56.942822630667" lon="14.801150957644">
        <ele>164</ele>
        <time>2020-02-02T14:24:49Z</time>
      </trkpt>
      <trkpt lat="56.942769237964" lon="14.80139352983">
        <ele>163.4</ele>
        <time>2020-02-02T14:24:56Z</time>
      </trkpt>
      <trkpt lat="56.942779799158" lon="14.801621433691">
        <ele>164.4</ele>
        <time>2020-02-02T14:25:03Z</time>
      </trkpt>
      <trkpt lat="56.942750211051" lon="14.801756382281">
        <ele>165</ele>
        <time>2020-02-02T14:25:08Z</time>
      </trkpt>
      <trkpt lat="56.942704026782" lon="14.801999289743">
        <ele>165.4</ele>
        <time>2020-02-02T14:25:13Z</time>
      </trkpt>
      <trkpt lat="56.942561618301" lon="14.802219482256">
        <ele>166.4</ele>
        <time>2020-02-02T14:25:19Z</time>
      </trkpt>
      <trkpt lat="56.942431447394" lon="14.802478734423">
        <ele>166</ele>
        <time>2020-02-02T14:25:25Z</time>
      </trkpt>
      <trkpt lat="56.942309071654" lon="14.80269104795">
        <ele>167</ele>
        <time>2020-02-02T14:27:21Z</time>
      </trkpt>
      <trkpt lat="56.942297839908" lon="14.802752319639">
        <ele>166.8</ele>
        <time>2020-02-02T14:27:25Z</time>
      </trkpt>
      <trkpt lat="56.942293816596" lon="14.803024060837">
        <ele>168</ele>
        <time>2020-02-02T14:27:33Z</time>
      </trkpt>
      <trkpt lat="56.942319297572" lon="14.803121207058">
        <ele>169</ele>
        <time>2020-02-02T14:27:37Z</time>
      </trkpt>
      <trkpt lat="56.942334133535" lon="14.803148029138">
        <ele>169.2</ele>
        <time>2020-02-02T14:27:38Z</time>
      </trkpt>
      <trkpt lat="56.94238484403" lon="14.803225729351">
        <ele>170.2</ele>
        <time>2020-02-02T14:27:41Z</time>
      </trkpt>
      <trkpt lat="56.942426250616" lon="14.803282558633">
        <ele>170.8</ele>
        <time>2020-02-02T14:27:43Z</time>
      </trkpt>
      <trkpt lat="56.942471261419" lon="14.803435444489">
        <ele>171</ele>
        <time>2020-02-02T14:27:47Z</time>
      </trkpt>
      <trkpt lat="56.942607634932" lon="14.803682961996">
        <ele>171.2</ele>
        <time>2020-02-02T14:27:54Z</time>
      </trkpt>
      <trkpt lat="56.942693549407" lon="14.803871303289">
        <ele>170.6</ele>
        <time>2020-02-02T14:28:00Z</time>
      </trkpt>
      <trkpt lat="56.942807124152" lon="14.804179170476">
        <ele>171.2</ele>
        <time>2020-02-02T14:28:09Z</time>
      </trkpt>
      <trkpt lat="56.942826067246" lon="14.804199622312">
        <ele>171.4</ele>
        <time>2020-02-02T14:28:10Z</time>
      </trkpt>
      <trkpt lat="56.942843166322" lon="14.804282603122">
        <ele>171.4</ele>
        <time>2020-02-02T14:28:12Z</time>
      </trkpt>
      <trkpt lat="56.942862109416" lon="14.804334151807">
        <ele>171.2</ele>
        <time>2020-02-02T14:28:14Z</time>
      </trkpt>
      <trkpt lat="56.942900247061" lon="14.804367930864">
        <ele>171.4</ele>
        <time>2020-02-02T14:28:16Z</time>
      </trkpt>
      <trkpt lat="56.942922459096" lon="14.804447642733">
        <ele>170.8</ele>
        <time>2020-02-02T14:28:19Z</time>
      </trkpt>
      <trkpt lat="56.942923381105" lon="14.804596589096">
        <ele>170.6</ele>
        <time>2020-02-02T14:28:23Z</time>
      </trkpt>
      <trkpt lat="56.942926901503" lon="14.804673702576">
        <ele>170.2</ele>
        <time>2020-02-02T14:28:25Z</time>
      </trkpt>
      <trkpt lat="56.942920363621" lon="14.804782667276">
        <ele>168.8</ele>
        <time>2020-02-02T14:28:27Z</time>
      </trkpt>
      <trkpt lat="56.942923381105" lon="14.804828097174">
        <ele>168</ele>
        <time>2020-02-02T14:28:28Z</time>
      </trkpt>
      <trkpt lat="56.942926063313" lon="14.804868749389">
        <ele>167.8</ele>
        <time>2020-02-02T14:28:29Z</time>
      </trkpt>
      <trkpt lat="56.942919776888" lon="14.80496170466">
        <ele>167.4</ele>
        <time>2020-02-02T14:28:31Z</time>
      </trkpt>
      <trkpt lat="56.942910892074" lon="14.805057425958">
        <ele>167</ele>
        <time>2020-02-02T14:28:33Z</time>
      </trkpt>
      <trkpt lat="56.942940983095" lon="14.805343835481">
        <ele>167.8</ele>
        <time>2020-02-02T14:28:40Z</time>
      </trkpt>
      <trkpt lat="56.942966128795" lon="14.805489345265">
        <ele>167.4</ele>
        <time>2020-02-02T14:28:44Z</time>
      </trkpt>
      <trkpt lat="56.942992950875" lon="14.805561513424">
        <ele>167</ele>
        <time>2020-02-02T14:28:46Z</time>
      </trkpt>
      <trkpt lat="56.943006697191" lon="14.805635274144">
        <ele>167</ele>
        <time>2020-02-02T14:28:48Z</time>
      </trkpt>
      <trkpt lat="56.943029998873" lon="14.805697886937">
        <ele>167.6</ele>
        <time>2020-02-02T14:28:50Z</time>
      </trkpt>
      <trkpt lat="56.943101664118" lon="14.805752872201">
        <ele>168.8</ele>
        <time>2020-02-02T14:28:55Z</time>
      </trkpt>
      <trkpt lat="56.94318028634" lon="14.805885222402">
        <ele>170</ele>
        <time>2020-02-02T14:29:00Z</time>
      </trkpt>
      <trkpt lat="56.943206186411" lon="14.805932915413">
        <ele>170</ele>
        <time>2020-02-02T14:29:02Z</time>
      </trkpt>
      <trkpt lat="56.94323309231" lon="14.805989912333">
        <ele>170</ele>
        <time>2020-02-02T14:29:05Z</time>
      </trkpt>
      <trkpt lat="56.94330852941" lon="14.806145983311">
        <ele>170.4</ele>
        <time>2020-02-02T14:29:12Z</time>
      </trkpt>
      <trkpt lat="56.943355887145" lon="14.806369528584">
        <ele>168.8</ele>
        <time>2020-02-02T14:29:18Z</time>
      </trkpt>
      <trkpt lat="56.943392767505" lon="14.806461310389">
        <ele>167.6</ele>
        <time>2020-02-02T14:29:21Z</time>
      </trkpt>
      <trkpt lat="56.943441969258" lon="14.806603048318">
        <ele>167.2</ele>
        <time>2020-02-02T14:29:26Z</time>
      </trkpt>
      <trkpt lat="56.943478430523" lon="14.806738332184">
        <ele>166.8</ele>
        <time>2020-02-02T14:29:30Z</time>
      </trkpt>
      <trkpt lat="56.943505923155" lon="14.807019125834">
        <ele>166.6</ele>
        <time>2020-02-02T14:29:36Z</time>
      </trkpt>
      <trkpt lat="56.943522351679" lon="14.807155918442">
        <ele>166</ele>
        <time>2020-02-02T14:29:39Z</time>
      </trkpt>
      <trkpt lat="56.943520675299" lon="14.80718626092">
        <ele>165.6</ele>
        <time>2020-02-02T14:29:40Z</time>
      </trkpt>
      <trkpt lat="56.943519082738" lon="14.807224733841">
        <ele>165.4</ele>
        <time>2020-02-02T14:29:41Z</time>
      </trkpt>
      <trkpt lat="56.943524028059" lon="14.807259015812">
        <ele>165</ele>
        <time>2020-02-02T14:29:42Z</time>
      </trkpt>
      <trkpt lat="56.943587898137" lon="14.8075148314">
        <ele>164.4</ele>
        <time>2020-02-02T14:29:47Z</time>
      </trkpt>
      <trkpt lat="56.943662161771" lon="14.807694706974">
        <ele>164</ele>
        <time>2020-02-02T14:29:52Z</time>
      </trkpt>
      <trkpt lat="56.943817143102" lon="14.807909786528">
        <ele>164</ele>
        <time>2020-02-02T14:29:59Z</time>
      </trkpt>
      <trkpt lat="56.943980254876" lon="14.808096199984">
        <ele>163.6</ele>
        <time>2020-02-02T14:30:06Z</time>
      </trkpt>
      <trkpt lat="56.94404613661" lon="14.808207595435">
        <ele>164</ele>
        <time>2020-02-02T14:30:10Z</time>
      </trkpt>
      <trkpt lat="56.944131799628" lon="14.808357715264">
        <ele>164</ele>
        <time>2020-02-02T14:30:15Z</time>
      </trkpt>
      <trkpt lat="56.944183013037" lon="14.808403983352">
        <ele>164</ele>
        <time>2020-02-02T14:30:18Z</time>
      </trkpt>
      <trkpt lat="56.944360038765" lon="14.80845108963">
        <ele>163.8</ele>
        <time>2020-02-02T14:30:27Z</time>
      </trkpt>
      <trkpt lat="56.944539746701" lon="14.808390656131">
        <ele>165</ele>
        <time>2020-02-02T14:30:33Z</time>
      </trkpt>
      <trkpt lat="56.944714425497" lon="14.808355955065">
        <ele>164.6</ele>
        <time>2020-02-02T14:30:40Z</time>
      </trkpt>
      <trkpt lat="56.944862366032" lon="14.808227460538">
        <ele>165.6</ele>
        <time>2020-02-02T14:30:46Z</time>
      </trkpt>
      <trkpt lat="56.945015838621" lon="14.808123189702">
        <ele>165.6</ele>
        <time>2020-02-02T14:30:54Z</time>
      </trkpt>
      <trkpt lat="56.945057664302" lon="14.808045154213">
        <ele>165</ele>
        <time>2020-02-02T14:30:58Z</time>
      </trkpt>
      <trkpt lat="56.945134274868" lon="14.807995617184">
        <ele>165</ele>
        <time>2020-02-02T14:31:02Z</time>
      </trkpt>
      <trkpt lat="56.945300236488" lon="14.807802079113">
        <ele>165.2</ele>
        <time>2020-02-02T14:31:11Z</time>
      </trkpt>
      <trkpt lat="56.945452954706" lon="14.807583982075">
        <ele>165.2</ele>
        <time>2020-02-02T14:31:19Z</time>
      </trkpt>
      <trkpt lat="56.945584299079" lon="14.807345097925">
        <ele>165.4</ele>
        <time>2020-02-02T14:31:28Z</time>
      </trkpt>
      <trkpt lat="56.945774149114" lon="14.807207802403">
        <ele>165.4</ele>
        <time>2020-02-02T14:31:37Z</time>
      </trkpt>
      <trkpt lat="56.945938685811" lon="14.807015437798">
        <ele>165.4</ele>
        <time>2020-02-02T14:31:44Z</time>
      </trkpt>
      <trkpt lat="56.94597313542" lon="14.806978725076">
        <ele>165.6</ele>
        <time>2020-02-02T14:31:46Z</time>
      </trkpt>
      <trkpt lat="56.946094756789" lon="14.806864898874">
        <ele>166.4</ele>
        <time>2020-02-02T14:31:50Z</time>
      </trkpt>
      <trkpt lat="56.946142952714" lon="14.806801447891">
        <ele>166.6</ele>
        <time>2020-02-02T14:31:52Z</time>
      </trkpt>
      <trkpt lat="56.946283684815" lon="14.806587374165">
        <ele>165.4</ele>
        <time>2020-02-02T14:31:59Z</time>
      </trkpt>
      <trkpt lat="56.946418130491" lon="14.806349579662">
        <ele>165.4</ele>
        <time>2020-02-02T14:32:05Z</time>
      </trkpt>
      <trkpt lat="56.946536063824" lon="14.806100888689">
        <ele>165.6</ele>
        <time>2020-02-02T14:32:12Z</time>
      </trkpt>
      <trkpt lat="56.946597754608" lon="14.805996534034">
        <ele>165.8</ele>
        <time>2020-02-02T14:32:16Z</time>
      </trkpt>
      <trkpt lat="56.946627007439" lon="14.805946661729">
        <ele>165.6</ele>
        <time>2020-02-02T14:32:19Z</time>
      </trkpt>
      <trkpt lat="56.946681825065" lon="14.805893017569">
        <ele>165.8</ele>
        <time>2020-02-02T14:32:21Z</time>
      </trkpt>
      <trkpt lat="56.946853737834" lon="14.805713644909">
        <ele>165</ele>
        <time>2020-02-02T14:32:27Z</time>
      </trkpt>
      <trkpt lat="56.946986088035" lon="14.805462020271">
        <ele>164.8</ele>
        <time>2020-02-02T14:32:34Z</time>
      </trkpt>
      <trkpt lat="56.947127490688" lon="14.805213496936">
        <ele>165.2</ele>
        <time>2020-02-02T14:32:41Z</time>
      </trkpt>
      <trkpt lat="56.947154648044" lon="14.805145855003">
        <ele>165.2</ele>
        <time>2020-02-02T14:32:43Z</time>
      </trkpt>
      <trkpt lat="56.947311641031" lon="14.80491811878">
        <ele>166</ele>
        <time>2020-02-02T14:32:51Z</time>
      </trkpt>
      <trkpt lat="56.947454887702" lon="14.804638917691">
        <ele>165.6</ele>
        <time>2020-02-02T14:32:58Z</time>
      </trkpt>
      <trkpt lat="56.947625627005" lon="14.804444373792">
        <ele>164.8</ele>
        <time>2020-02-02T14:33:06Z</time>
      </trkpt>
      <trkpt lat="56.947726545081" lon="14.804376396583">
        <ele>164.6</ele>
        <time>2020-02-02T14:33:11Z</time>
      </trkpt>
      <trkpt lat="56.94776183288" lon="14.804398860075">
        <ele>164.4</ele>
        <time>2020-02-02T14:33:13Z</time>
      </trkpt>
      <trkpt lat="56.947797288317" lon="14.804407158156">
        <ele>164.2</ele>
        <time>2020-02-02T14:33:15Z</time>
      </trkpt>
      <trkpt lat="56.947984037049" lon="14.804294589239">
        <ele>164.2</ele>
        <time>2020-02-02T14:33:21Z</time>
      </trkpt>
      <trkpt lat="56.948086882962" lon="14.804209764411">
        <ele>164.2</ele>
        <time>2020-02-02T14:33:26Z</time>
      </trkpt>
      <trkpt lat="56.948157877655" lon="14.804168106368">
        <ele>164.6</ele>
        <time>2020-02-02T14:33:29Z</time>
      </trkpt>
      <trkpt lat="56.948294251168" lon="14.804127202696">
        <ele>165.4</ele>
        <time>2020-02-02T14:33:34Z</time>
      </trkpt>
      <trkpt lat="56.948368347164" lon="14.804050508311">
        <ele>165.4</ele>
        <time>2020-02-02T14:33:38Z</time>
      </trkpt>
      <trkpt lat="56.948430457043" lon="14.804008431173">
        <ele>165.2</ele>
        <time>2020-02-02T14:33:41Z</time>
      </trkpt>
      <trkpt lat="56.948611422264" lon="14.803794357447">
        <ele>165</ele>
        <time>2020-02-02T14:33:48Z</time>
      </trkpt>
      <trkpt lat="56.948775288409" lon="14.803618421366">
        <ele>165</ele>
        <time>2020-02-02T14:33:54Z</time>
      </trkpt>
      <trkpt lat="56.948960528399" lon="14.803500320395">
        <ele>164.6</ele>
        <time>2020-02-02T14:34:01Z</time>
      </trkpt>
      <trkpt lat="56.94914233181" lon="14.803379034302">
        <ele>164.6</ele>
        <time>2020-02-02T14:34:07Z</time>
      </trkpt>
      <trkpt lat="56.949316256235" lon="14.803272500353">
        <ele>164.8</ele>
        <time>2020-02-02T14:34:14Z</time>
      </trkpt>
      <trkpt lat="56.949505603356" lon="14.803162529825">
        <ele>165</ele>
        <time>2020-02-02T14:34:22Z</time>
      </trkpt>
      <trkpt lat="56.949618926644" lon="14.803044345035">
        <ele>165.2</ele>
        <time>2020-02-02T14:34:27Z</time>
      </trkpt>
      <trkpt lat="56.949767118636" lon="14.802917945983">
        <ele>165.4</ele>
        <time>2020-02-02T14:34:34Z</time>
      </trkpt>
      <trkpt lat="56.949952107169" lon="14.802827756739">
        <ele>165.6</ele>
        <time>2020-02-02T14:34:41Z</time>
      </trkpt>
      <trkpt lat="56.950138772082" lon="14.802699681307">
        <ele>165.8</ele>
        <time>2020-02-02T14:34:47Z</time>
      </trkpt>
      <trkpt lat="56.950302302951" lon="14.80255861393">
        <ele>166</ele>
        <time>2020-02-02T14:34:52Z</time>
      </trkpt>
      <trkpt lat="56.950506402216" lon="14.802450403601">
        <ele>165.8</ele>
        <time>2020-02-02T14:34:58Z</time>
      </trkpt>
      <trkpt lat="56.950692396577" lon="14.802323836911">
        <ele>165.4</ele>
        <time>2020-02-02T14:35:04Z</time>
      </trkpt>
      <trkpt lat="56.950874786721" lon="14.802241359015">
        <ele>165.4</ele>
        <time>2020-02-02T14:35:11Z</time>
      </trkpt>
      <trkpt lat="56.95097629153" lon="14.802168939399">
        <ele>165.6</ele>
        <time>2020-02-02T14:35:16Z</time>
      </trkpt>
      <trkpt lat="56.951115682527" lon="14.802102387113">
        <ele>165.8</ele>
        <time>2020-02-02T14:35:26Z</time>
      </trkpt>
      <trkpt lat="56.951209056893" lon="14.802048240039">
        <ele>165.6</ele>
        <time>2020-02-02T14:35:33Z</time>
      </trkpt>
      <trkpt lat="56.951241913941" lon="14.802017813742">
        <ele>165.6</ele>
        <time>2020-02-02T14:35:36Z</time>
      </trkpt>
      <trkpt lat="56.951284913088" lon="14.802080091259">
        <ele>165.2</ele>
        <time>2020-02-02T14:35:40Z</time>
      </trkpt>
      <trkpt lat="56.951348866985" lon="14.80208838934">
        <ele>164.8</ele>
        <time>2020-02-02T14:35:43Z</time>
      </trkpt>
      <trkpt lat="56.951399493661" lon="14.802078079603">
        <ele>165.4</ele>
        <time>2020-02-02T14:35:45Z</time>
      </trkpt>
      <trkpt lat="56.951598563786" lon="14.80203390699">
        <ele>165</ele>
        <time>2020-02-02T14:35:53Z</time>
      </trkpt>
      <trkpt lat="56.951792520952" lon="14.801984621418">
        <ele>165.4</ele>
        <time>2020-02-02T14:35:59Z</time>
      </trkpt>
      <trkpt lat="56.951966361558" lon="14.801872639234">
        <ele>165.4</ele>
        <time>2020-02-02T14:36:06Z</time>
      </trkpt>
      <trkpt lat="56.951980610788" lon="14.801872555415">
        <ele>165.4</ele>
        <time>2020-02-02T14:36:07Z</time>
      </trkpt>
      <trkpt lat="56.952073649878" lon="14.80185118157">
        <ele>164.2</ele>
        <time>2020-02-02T14:36:12Z</time>
      </trkpt>
      <trkpt lat="56.952241706973" lon="14.801856294529">
        <ele>164.6</ele>
        <time>2020-02-02T14:36:18Z</time>
      </trkpt>
      <trkpt lat="56.952426779325" lon="14.801814133572">
        <ele>164.8</ele>
        <time>2020-02-02T14:36:23Z</time>
      </trkpt>
      <trkpt lat="56.952624340708" lon="14.801731990952">
        <ele>165.4</ele>
        <time>2020-02-02T14:36:29Z</time>
      </trkpt>
      <trkpt lat="56.952816453856" lon="14.801635012369">
        <ele>165.4</ele>
        <time>2020-02-02T14:36:37Z</time>
      </trkpt>
      <trkpt lat="56.952989204815" lon="14.801588744281">
        <ele>165.2</ele>
        <time>2020-02-02T14:36:43Z</time>
      </trkpt>
      <trkpt lat="56.953173355158" lon="14.801689997633">
        <ele>165.2</ele>
        <time>2020-02-02T14:36:50Z</time>
      </trkpt>
      <trkpt lat="56.953249378991" lon="14.801730063115">
        <ele>165.4</ele>
        <time>2020-02-02T14:36:53Z</time>
      </trkpt>
      <trkpt lat="56.953395140232" lon="14.801851684484">
        <ele>166</ele>
        <time>2020-02-02T14:36:59Z</time>
      </trkpt>
      <trkpt lat="56.953483653096" lon="14.801894683631">
        <ele>166</ele>
        <time>2020-02-02T14:37:03Z</time>
      </trkpt>
      <trkpt lat="56.953496812679" lon="14.801914716372">
        <ele>166</ele>
        <time>2020-02-02T14:37:04Z</time>
      </trkpt>
      <trkpt lat="56.953528747718" lon="14.801949585076">
        <ele>166.4</ele>
        <time>2020-02-02T14:37:06Z</time>
      </trkpt>
      <trkpt lat="56.953596305832" lon="14.801978334993">
        <ele>166</ele>
        <time>2020-02-02T14:37:10Z</time>
      </trkpt>
      <trkpt lat="56.953657242245" lon="14.801977496803">
        <ele>165.8</ele>
        <time>2020-02-02T14:37:13Z</time>
      </trkpt>
      <trkpt lat="56.95378506622" lon="14.801912537078">
        <ele>166.4</ele>
        <time>2020-02-02T14:37:19Z</time>
      </trkpt>
      <trkpt lat="56.953913057833" lon="14.801673150014">
        <ele>165.8</ele>
        <time>2020-02-02T14:37:26Z</time>
      </trkpt>
      <trkpt lat="56.954029650062" lon="14.801414065485">
        <ele>165.4</ele>
        <time>2020-02-02T14:37:33Z</time>
      </trkpt>
      <trkpt lat="56.954058819074" lon="14.80133401834">
        <ele>165.2</ele>
        <time>2020-02-02T14:37:35Z</time>
      </trkpt>
      <trkpt lat="56.954152696354" lon="14.801040735659">
        <ele>164.8</ele>
        <time>2020-02-02T14:37:43Z</time>
      </trkpt>
      <trkpt lat="56.954180943357" lon="14.800715015025">
        <ele>164.4</ele>
        <time>2020-02-02T14:37:50Z</time>
      </trkpt>
      <trkpt lat="56.954247160367" lon="14.800519800574">
        <ele>165</ele>
        <time>2020-02-02T14:37:56Z</time>
      </trkpt>
      <trkpt lat="56.954242550322" lon="14.800465150586">
        <ele>165</ele>
        <time>2020-02-02T14:37:58Z</time>
      </trkpt>
      <trkpt lat="56.95424271796" lon="14.800428521683">
        <ele>164.8</ele>
        <time>2020-02-02T14:38:00Z</time>
      </trkpt>
      <trkpt lat="56.954261912511" lon="14.800382505052">
        <ele>164.6</ele>
        <time>2020-02-02T14:38:04Z</time>
      </trkpt>
      <trkpt lat="56.954260487588" lon="14.800293992188">
        <ele>164.8</ele>
        <time>2020-02-02T14:38:08Z</time>
      </trkpt>
      <trkpt lat="56.95426199633" lon="14.800242862598">
        <ele>164.6</ele>
        <time>2020-02-02T14:38:11Z</time>
      </trkpt>
      <trkpt lat="56.954276748474" lon="14.800196259234">
        <ele>164.2</ele>
        <time>2020-02-02T14:38:16Z</time>
      </trkpt>
      <trkpt lat="56.954300972165" lon="14.80017815433">
        <ele>164</ele>
        <time>2020-02-02T14:38:18Z</time>
      </trkpt>
      <trkpt lat="56.954362830587" lon="14.80012786293">
        <ele>164</ele>
        <time>2020-02-02T14:38:21Z</time>
      </trkpt>
      <trkpt lat="56.954390071762" lon="14.800078744996">
        <ele>164</ele>
        <time>2020-02-02T14:38:24Z</time>
      </trkpt>
      <trkpt lat="56.954455366763" lon="14.799983526612">
        <ele>164.8</ele>
        <time>2020-02-02T14:38:28Z</time>
      </trkpt>
      <trkpt lat="56.954505490525" lon="14.799841537226">
        <ele>165.2</ele>
        <time>2020-02-02T14:38:32Z</time>
      </trkpt>
      <trkpt lat="56.954610767189" lon="14.79955957011">
        <ele>165</ele>
        <time>2020-02-02T14:38:39Z</time>
      </trkpt>
      <trkpt lat="56.954679834045" lon="14.799381287097">
        <ele>164.2</ele>
        <time>2020-02-02T14:38:45Z</time>
      </trkpt>
      <trkpt lat="56.95482442182" lon="14.799209709604">
        <ele>165.4</ele>
        <time>2020-02-02T14:38:53Z</time>
      </trkpt>
      <trkpt lat="56.955001866643" lon="14.799093201194">
        <ele>165.6</ele>
        <time>2020-02-02T14:38:59Z</time>
      </trkpt>
      <trkpt lat="56.955191129945" lon="14.799036036636">
        <ele>166</ele>
        <time>2020-02-02T14:39:05Z</time>
      </trkpt>
      <trkpt lat="56.955306045794" lon="14.798983649761">
        <ele>165.8</ele>
        <time>2020-02-02T14:39:10Z</time>
      </trkpt>
    </trkseg>
  </trk>
</gpx>